createdAt,value
2019-04-22T00:00:36.153Z,49.77
2019-04-22T00:01:34.611Z,50.80
2019-04-22T00:02:40.024Z,50.49
2019-04-22T00:03:37.745Z,50.09
2019-04-22T00:04:49.823Z,50.59
2019-04-22T00:05:56.332Z,49.77
2019-04-22T00:06:57.543Z,51.01
2019-04-22T00:07:56.560Z,49.16
2019-04-22T00:08:55.552Z,49.24
2019-04-22T00:10:03.342Z,49.47
2019-04-22T00:11:02.971Z,49.88
2019-04-22T00:11:59.012Z,49.77
2019-04-22T00:13:01.472Z,50.29
2019-04-22T00:13:57.695Z,49.98
2019-04-22T00:14:55.474Z,49.77
2019-04-22T00:15:54.128Z,50.09
2019-04-22T00:16:58.509Z,49.67
2019-04-22T00:18:03.325Z,49.24
2019-04-22T00:19:08.459Z,49.65
2019-04-22T00:20:58.221Z,50.16
2019-04-22T00:22:03.305Z,50.26
2019-04-22T00:22:56.623Z,50.49
2019-04-22T00:23:59.040Z,50.18
2019-04-22T00:25:03.319Z,50.01
2019-04-22T00:26:06.966Z,50.31
2019-04-22T00:26:58.814Z,51.44
2019-04-22T00:28:02.730Z,51.54
2019-04-22T00:28:58.218Z,51.67
2019-04-22T00:31:00.201Z,51.26
2019-04-22T00:32:58.931Z,50.95
2019-04-22T00:33:57.778Z,51.34
2019-04-22T00:34:53.507Z,50.85
2019-04-22T00:35:54.477Z,51.13
2019-04-22T00:36:58.648Z,51.05
2019-04-22T00:38:08.925Z,51.26
2019-04-22T00:38:58.773Z,51.05
2019-04-22T00:40:15.960Z,51.05
2019-04-22T00:40:59.133Z,51.46
2019-04-22T00:41:56.985Z,51.46
2019-04-22T00:43:03.128Z,51.90
2019-04-22T00:44:06.542Z,51.56
2019-04-22T00:45:04.941Z,51.87
2019-04-22T00:45:57.845Z,51.69
2019-04-22T00:46:59.593Z,52.41
2019-04-22T00:48:05.274Z,52.61
2019-04-22T00:49:45.371Z,53.12
2019-04-22T00:51:08.206Z,53.46
2019-04-22T00:52:03.292Z,53.77
2019-04-22T00:53:04.439Z,53.56
2019-04-22T00:53:56.129Z,53.15
2019-04-22T00:55:00.564Z,52.95
2019-04-22T00:56:00.543Z,53.46
2019-04-22T00:56:54.352Z,53.56
2019-04-22T00:58:02.860Z,54.59
2019-04-22T00:58:50.232Z,53.69
2019-04-22T00:59:58.335Z,54.00
2019-04-22T01:01:03.359Z,54.10
2019-04-22T01:02:05.674Z,54.51
2019-04-22T01:03:03.117Z,54.00
2019-04-22T01:04:04.284Z,54.61
2019-04-22T01:05:03.878Z,54.72
2019-04-22T01:05:57.116Z,55.13
2019-04-22T01:06:57.509Z,56.28
2019-04-22T01:07:56.362Z,54.64
2019-04-22T01:09:01.516Z,55.15
2019-04-22T01:10:01.372Z,56.38
2019-04-22T01:11:06.221Z,54.53
2019-04-22T01:11:52.377Z,54.43
2019-04-22T01:12:59.723Z,55.66
2019-04-22T01:13:55.237Z,55.26
2019-04-22T01:14:55.324Z,56.18
2019-04-22T01:15:58.570Z,55.26
2019-04-22T01:17:01.547Z,54.64
2019-04-22T01:17:57.915Z,54.64
2019-04-22T01:18:55.609Z,55.57
2019-04-22T01:19:58.535Z,55.66
2019-04-22T01:21:20.902Z,55.36
2019-04-22T01:22:13.352Z,56.41
2019-04-22T01:22:53.227Z,55.57
2019-04-22T01:23:56.589Z,56.18
2019-04-22T01:24:52.799Z,56.28
2019-04-22T01:25:50.112Z,55.66
2019-04-22T01:26:50.831Z,55.05
2019-04-22T01:27:51.668Z,54.64
2019-04-22T01:28:45.890Z,54.43
2019-04-22T01:29:46.560Z,54.72
2019-04-22T01:30:40.620Z,54.41
2019-04-22T01:31:36.153Z,54.00
2019-04-22T01:32:38.520Z,54.30
2019-04-22T01:33:39.014Z,54.72
2019-04-22T01:34:48.813Z,54.30
2019-04-22T01:35:49.340Z,54.82
2019-04-22T01:36:55.510Z,54.61
2019-04-22T01:37:52.529Z,54.00
2019-04-22T01:38:58.426Z,53.69
2019-04-22T01:39:56.991Z,54.51
2019-04-22T01:41:02.697Z,53.79
2019-04-22T01:42:03.906Z,53.69
2019-04-22T01:43:01.853Z,54.21
2019-04-22T01:44:09.775Z,53.59
2019-04-22T01:45:00.767Z,54.00
2019-04-22T01:46:02.689Z,55.13
2019-04-22T01:47:00.336Z,53.79
2019-04-22T01:48:00.861Z,53.38
2019-04-22T01:49:02.773Z,54.72
2019-04-22T01:50:03.358Z,54.00
2019-04-22T01:50:56.191Z,53.61
2019-04-22T01:52:14.290Z,54.30
2019-04-22T01:53:00.917Z,54.51
2019-04-22T01:54:04.763Z,54.43
2019-04-22T01:55:02.183Z,55.57
2019-04-22T01:56:14.021Z,54.64
2019-04-22T01:56:59.434Z,55.57
2019-04-22T01:57:53.587Z,54.64
2019-04-22T01:58:49.358Z,54.87
2019-04-22T01:59:51.551Z,55.98
2019-04-22T02:01:13.571Z,56.00
2019-04-22T02:01:55.782Z,55.08
2019-04-22T02:02:59.466Z,54.46
2019-04-22T02:04:01.263Z,54.64
2019-04-22T02:05:01.212Z,55.49
2019-04-22T02:06:02.349Z,55.08
2019-04-22T02:06:57.215Z,55.15
2019-04-22T02:08:02.536Z,54.66
2019-04-22T02:09:04.161Z,54.77
2019-04-22T02:09:55.073Z,55.18
2019-04-22T02:11:17.375Z,55.49
2019-04-22T02:12:00.225Z,55.28
2019-04-22T02:13:03.066Z,56.23
2019-04-22T02:13:59.181Z,55.93
2019-04-22T02:14:59.427Z,56.95
2019-04-22T02:16:00.206Z,56.54
2019-04-22T02:17:06.471Z,57.06
2019-04-22T02:18:01.357Z,57.16
2019-04-22T02:19:00.902Z,58.11
2019-04-22T02:19:57.499Z,57.93
2019-04-22T02:20:59.033Z,58.34
2019-04-22T02:21:54.144Z,59.30
2019-04-22T02:23:15.864Z,60.53
2019-04-22T02:23:59.557Z,60.56
2019-04-22T02:24:58.865Z,61.07
2019-04-22T02:26:01.139Z,61.52
2019-04-22T02:26:54.233Z,60.89
2019-04-22T02:27:56.558Z,61.72
2019-04-22T02:29:01.903Z,63.09
2019-04-22T02:29:56.054Z,63.17
2019-04-22T02:35:23.339Z,62.99
2019-04-22T02:36:56.248Z,62.57
2019-04-22T02:38:07.766Z,61.75
2019-04-22T02:40:03.656Z,61.85
2019-04-22T02:41:16.063Z,62.88
2019-04-22T02:42:06.654Z,62.78
2019-04-22T02:43:01.415Z,63.40
2019-04-22T02:46:22.420Z,62.88
2019-04-22T02:47:13.440Z,62.68
2019-04-22T02:48:10.815Z,61.44
2019-04-22T02:49:22.229Z,61.54
2019-04-22T02:50:02.020Z,62.60
2019-04-22T02:51:12.418Z,62.26
2019-04-22T02:52:01.360Z,62.88
2019-04-22T02:53:10.461Z,62.16
2019-04-22T02:55:01.336Z,61.54
2019-04-22T02:56:12.147Z,61.65
2019-04-22T02:57:03.983Z,60.61
2019-04-22T02:57:57.885Z,61.44
2019-04-22T02:59:09.950Z,61.03
2019-04-22T03:00:07.467Z,61.75
2019-04-22T03:01:05.999Z,61.13
2019-04-22T03:01:54.279Z,61.13
2019-04-22T03:04:06.807Z,61.33
2019-04-22T03:05:08.992Z,62.47
2019-04-22T03:06:16.534Z,62.06
2019-04-22T03:06:46.069Z,62.57
2019-04-22T03:08:10.825Z,61.03
2019-04-22T03:09:05.465Z,61.03
2019-04-22T03:11:04.112Z,61.44
2019-04-22T03:12:14.370Z,61.24
2019-04-22T03:13:06.673Z,60.79
2019-04-22T03:14:54.888Z,59.77
2019-04-22T03:16:07.680Z,61.10
2019-04-22T03:16:57.382Z,59.66
2019-04-22T03:18:03.193Z,59.77
2019-04-22T03:22:00.694Z,58.63
2019-04-22T03:23:05.801Z,59.14
2019-04-22T03:24:20.082Z,58.60
2019-04-22T03:25:35.904Z,57.98
2019-04-22T03:27:00.853Z,57.98
2019-04-22T03:27:54.200Z,58.19
2019-04-22T03:28:54.964Z,58.06
2019-04-22T03:30:36.693Z,57.96
2019-04-22T03:32:36.103Z,58.16
2019-04-22T03:33:12.195Z,57.54
2019-04-22T03:36:10.691Z,56.52
2019-04-22T03:40:22.351Z,57.24
2019-04-22T03:41:03.599Z,57.34
2019-04-22T03:42:06.958Z,57.75
2019-04-22T03:45:10.367Z,57.98
2019-04-22T03:45:51.701Z,58.40
2019-04-22T03:47:11.352Z,59.01
2019-04-22T03:49:18.941Z,58.94
2019-04-22T03:50:15.758Z,59.86
2019-04-22T03:51:09.641Z,60.17
2019-04-22T03:53:14.916Z,60.59
2019-04-22T03:54:11.174Z,59.79
2019-04-22T03:55:05.177Z,60.93
2019-04-22T03:56:15.992Z,60.89
2019-04-22T03:57:26.529Z,60.93
2019-04-22T03:57:56.960Z,59.58
2019-04-22T03:59:11.523Z,59.58
2019-04-22T04:00:14.965Z,59.48
2019-04-22T04:02:08.239Z,59.38
2019-04-22T04:03:00.931Z,60.72
2019-04-22T04:04:13.043Z,59.66
2019-04-22T04:04:58.702Z,58.94
2019-04-22T04:07:14.604Z,59.97
2019-04-22T04:08:03.539Z,59.66
2019-04-22T04:09:14.209Z,58.01
2019-04-22T04:10:10.252Z,58.09
2019-04-22T04:10:57.519Z,58.81
2019-04-22T04:12:04.119Z,57.98
2019-04-22T04:15:14.264Z,57.78
2019-04-22T04:15:55.614Z,58.60
2019-04-22T04:17:06.208Z,56.93
2019-04-22T04:17:54.899Z,57.96
2019-04-22T04:19:08.405Z,58.37
2019-04-22T04:21:14.593Z,58.47
2019-04-22T04:23:08.328Z,58.26
2019-04-22T04:24:11.792Z,58.09
2019-04-22T04:25:19.882Z,57.86
2019-04-22T04:26:00.958Z,58.26
2019-04-22T04:27:20.758Z,58.16
2019-04-22T04:29:22.136Z,58.26
2019-04-22T04:30:59.821Z,58.26
2019-04-22T04:31:02.658Z,58.81
2019-04-22T04:32:18.835Z,58.60
2019-04-22T04:34:03.328Z,58.40
2019-04-22T04:36:02.372Z,59.12
2019-04-22T04:37:07.363Z,58.40
2019-04-22T04:38:13.055Z,58.70
2019-04-22T04:39:00.698Z,59.01
2019-04-22T04:41:12.698Z,59.74
2019-04-22T04:46:11.704Z,60.05
2019-04-22T04:47:17.655Z,59.74
2019-04-22T04:48:00.825Z,60.05
2019-04-22T04:49:09.683Z,60.38
2019-04-22T04:54:13.214Z,58.89
2019-04-22T04:55:10.049Z,59.50
2019-04-22T04:56:02.054Z,58.16
2019-04-22T04:56:56.047Z,58.58
2019-04-22T04:58:27.872Z,58.26
2019-04-22T05:01:08.039Z,59.50
2019-04-22T05:02:02.365Z,59.50
2019-04-22T05:02:58.471Z,58.14
2019-04-22T05:04:04.672Z,58.24
2019-04-22T05:06:05.995Z,58.45
2019-04-22T05:08:00.456Z,56.59
2019-04-22T05:09:11.625Z,56.46
2019-04-22T05:11:16.433Z,57.36
2019-04-22T05:12:12.819Z,56.02
2019-04-22T05:15:03.959Z,56.74
2019-04-22T05:16:17.370Z,55.62
2019-04-22T05:18:10.781Z,56.62
2019-04-22T05:19:05.654Z,56.21
2019-04-22T05:20:05.234Z,55.87
2019-04-22T05:21:07.818Z,55.87
2019-04-22T05:21:58.080Z,54.33
2019-04-22T05:22:51.568Z,54.64
2019-04-22T05:24:05.436Z,54.95
2019-04-22T05:24:58.228Z,54.64
2019-04-22T05:25:59.146Z,54.30
2019-04-22T05:26:56.718Z,55.54
2019-04-22T05:27:52.511Z,54.21
2019-04-22T05:29:02.660Z,54.41
2019-04-22T05:30:21.520Z,54.61
2019-04-22T05:30:56.704Z,54.38
2019-04-22T05:32:10.688Z,53.97
2019-04-22T05:32:59.530Z,54.18
2019-04-22T05:33:56.699Z,53.77
2019-04-22T05:34:52.927Z,53.56
2019-04-22T05:35:56.440Z,54.05
2019-04-22T05:36:52.835Z,52.82
2019-04-22T05:37:58.046Z,52.49
2019-04-22T05:39:00.253Z,53.61
2019-04-22T05:40:06.581Z,53.61
2019-04-22T05:40:56.478Z,52.23
2019-04-22T05:41:56.063Z,50.78
2019-04-22T05:42:55.956Z,50.34
2019-04-22T05:43:58.341Z,49.89
2019-04-22T05:44:55.561Z,48.21
2019-04-22T05:45:54.802Z,47.88
2019-04-22T05:46:53.277Z,47.90
2019-04-22T05:49:54.640Z,49.50
2019-04-22T05:50:56.460Z,50.09
2019-04-22T05:51:55.451Z,49.79
2019-04-22T05:52:49.834Z,50.07
2019-04-22T05:53:59.400Z,49.41
2019-04-22T05:54:55.021Z,47.28
2019-04-22T05:55:56.556Z,45.28
2019-04-22T05:56:47.599Z,44.53
2019-04-22T05:57:51.042Z,44.54
2019-04-22T05:58:58.402Z,43.51
2019-04-22T06:01:21.817Z,41.62
2019-04-22T06:01:59.793Z,41.52
2019-04-22T06:03:20.761Z,41.40
2019-04-22T06:04:04.314Z,41.21
2019-04-22T06:04:59.845Z,43.20
2019-04-22T06:06:00.824Z,43.79
2019-04-22T06:06:54.423Z,43.38
2019-04-22T06:07:53.370Z,44.08
2019-04-22T06:08:57.794Z,43.37
2019-04-22T06:10:02.329Z,43.47
2019-04-22T06:10:58.132Z,42.25
2019-04-22T06:11:52.041Z,43.24
2019-04-22T06:12:49.582Z,42.23
2019-04-22T06:13:51.671Z,42.39
2019-04-22T06:14:54.263Z,40.94
2019-04-22T06:15:52.911Z,41.56
2019-04-22T06:16:58.724Z,40.87
2019-04-22T06:18:02.769Z,41.09
2019-04-22T06:18:56.862Z,41.70
2019-04-22T06:19:50.967Z,42.39
2019-04-22T06:21:50.047Z,42.05
2019-04-22T06:22:58.520Z,40.73
2019-04-22T06:23:54.491Z,40.89
2019-04-22T06:24:59.202Z,42.92
2019-04-22T06:26:05.290Z,42.60
2019-04-22T06:27:01.658Z,40.87
2019-04-22T06:27:57.569Z,42.29
2019-04-22T06:28:56.939Z,41.58
2019-04-22T06:30:57.339Z,40.85
2019-04-22T06:32:23.011Z,41.22
2019-04-22T06:32:54.215Z,41.32
2019-04-22T06:33:48.383Z,41.54
2019-04-22T06:35:00.188Z,41.24
2019-04-22T06:35:58.898Z,40.53
2019-04-22T06:37:01.931Z,40.91
2019-04-22T06:38:55.651Z,40.53
2019-04-22T06:39:51.174Z,40.65
2019-04-22T06:40:55.347Z,41.46
2019-04-22T06:41:58.871Z,39.94
2019-04-22T06:42:59.333Z,40.55
2019-04-22T06:43:58.594Z,41.63
2019-04-22T06:45:01.392Z,40.69
2019-04-22T06:45:48.874Z,38.99
2019-04-22T06:46:55.217Z,40.00
2019-04-22T06:48:02.623Z,39.98
2019-04-22T06:48:54.961Z,39.39
2019-04-22T06:49:55.491Z,40.02
2019-04-22T06:50:52.833Z,38.32
2019-04-22T06:51:55.617Z,40.45
2019-04-22T06:52:57.217Z,40.55
2019-04-22T06:53:58.684Z,40.53
2019-04-22T06:54:54.496Z,39.29
2019-04-22T06:55:51.462Z,40.14
2019-04-22T06:56:58.094Z,41.03
2019-04-22T06:57:51.116Z,39.72
2019-04-22T06:58:53.715Z,40.81
2019-04-22T06:59:42.619Z,38.37
2019-04-22T07:00:53.173Z,38.20
2019-04-22T07:01:57.581Z,38.82
2019-04-22T07:03:53.073Z,41.50
2019-04-22T07:04:56.819Z,40.00
2019-04-22T07:05:52.326Z,40.91
2019-04-22T07:06:56.471Z,40.99
2019-04-22T07:07:53.706Z,41.07
2019-04-22T07:09:13.938Z,41.78
2019-04-22T07:09:54.291Z,40.34
2019-04-22T07:10:50.747Z,40.14
2019-04-22T07:11:49.930Z,40.45
2019-04-22T07:12:56.170Z,39.92
2019-04-22T07:13:57.322Z,40.20
2019-04-22T07:14:53.520Z,39.39
2019-04-22T07:16:03.661Z,39.09
2019-04-22T07:16:51.037Z,38.57
2019-04-22T07:17:58.280Z,37.55
2019-04-22T07:19:53.122Z,36.91
2019-04-22T07:20:56.658Z,36.83
2019-04-22T07:21:50.336Z,37.42
2019-04-22T07:22:51.250Z,37.40
2019-04-22T07:23:56.591Z,36.47
2019-04-22T07:24:55.980Z,37.52
2019-04-22T07:25:56.579Z,37.84
2019-04-22T07:26:54.491Z,38.35
2019-04-22T07:27:52.602Z,37.62
2019-04-22T07:28:49.191Z,37.32
2019-04-22T07:29:55.678Z,37.92
2019-04-22T07:30:52.834Z,38.02
2019-04-22T07:31:57.447Z,36.68
2019-04-22T07:33:12.574Z,38.19
2019-04-22T07:33:51.974Z,37.04
2019-04-22T07:34:52.241Z,36.15
2019-04-22T07:36:19.539Z,35.75
2019-04-22T07:36:58.730Z,36.83
2019-04-22T07:37:46.966Z,38.35
2019-04-22T07:38:48.161Z,37.86
2019-04-22T07:39:51.360Z,37.65
2019-04-22T07:40:54.427Z,36.52
2019-04-22T07:41:52.386Z,36.61
2019-04-22T07:42:49.085Z,39.61
2019-04-22T07:44:10.268Z,36.46
2019-04-22T07:45:54.954Z,36.61
2019-04-22T07:46:56.519Z,35.50
2019-04-22T07:48:13.006Z,36.19
2019-04-22T07:48:53.162Z,36.87
2019-04-22T07:49:55.711Z,35.05
2019-04-22T07:51:49.488Z,36.25
2019-04-22T07:52:46.923Z,34.76
2019-04-22T07:54:52.562Z,36.07
2019-04-22T07:55:52.192Z,35.19
2019-04-22T07:57:52.390Z,36.27
2019-04-22T07:58:48.822Z,35.95
2019-04-22T07:59:57.561Z,33.94
2019-04-22T08:00:59.108Z,33.15
2019-04-22T08:01:53.816Z,34.07
2019-04-22T08:02:59.740Z,34.77
2019-04-22T08:04:05.537Z,35.41
2019-04-22T08:05:59.447Z,35.30
2019-04-22T08:06:58.765Z,35.08
2019-04-22T08:08:00.673Z,34.07
2019-04-22T08:08:55.581Z,34.57
2019-04-22T08:09:59.685Z,34.86
2019-04-22T08:10:58.027Z,34.25
2019-04-22T08:11:52.518Z,36.47
2019-04-22T08:12:53.385Z,33.94
2019-04-22T08:13:46.839Z,35.45
2019-04-22T08:14:53.635Z,33.47
2019-04-22T08:15:53.998Z,34.61
2019-04-22T08:17:01.373Z,35.21
2019-04-22T08:18:54.084Z,34.44
2019-04-22T08:20:00.555Z,33.62
2019-04-22T08:20:54.089Z,33.10
2019-04-22T08:21:52.151Z,32.56
2019-04-22T08:23:01.183Z,32.68
2019-04-22T08:24:06.229Z,32.59
2019-04-22T08:24:58.553Z,33.91
2019-04-22T08:25:49.157Z,33.15
2019-04-22T08:26:53.095Z,30.12
2019-04-22T08:27:53.290Z,31.96
2019-04-22T08:28:53.393Z,30.94
2019-04-22T08:29:59.695Z,31.40
2019-04-22T08:30:53.769Z,29.60
2019-04-22T08:31:54.755Z,27.48
2019-04-22T08:32:53.434Z,27.91
2019-04-22T08:33:54.607Z,28.31
2019-04-22T08:34:47.139Z,29.35
2019-04-22T08:36:06.448Z,29.12
2019-04-22T08:37:12.244Z,28.19
2019-04-22T08:38:06.617Z,28.38
2019-04-22T08:39:55.098Z,27.51
2019-04-22T08:41:01.127Z,27.51
2019-04-22T08:41:49.849Z,28.19
2019-04-22T08:42:55.502Z,29.60
2019-04-22T08:43:57.510Z,27.45
2019-04-22T08:45:05.614Z,26.92
2019-04-22T08:45:50.610Z,27.39
2019-04-22T08:46:57.013Z,26.54
2019-04-22T08:47:47.854Z,27.85
2019-04-22T08:48:54.301Z,27.73
2019-04-22T08:49:57.305Z,26.65
2019-04-22T08:50:50.798Z,26.35
2019-04-22T08:51:49.432Z,25.54
2019-04-22T08:52:58.735Z,26.57
2019-04-22T08:55:07.782Z,25.60
2019-04-22T08:55:56.717Z,26.02
2019-04-22T08:56:49.369Z,27.80
2019-04-22T08:58:08.461Z,26.68
2019-04-22T08:58:57.368Z,26.18
2019-04-22T08:59:54.495Z,25.70
2019-04-22T09:00:57.100Z,27.04
2019-04-22T09:01:50.673Z,26.84
2019-04-22T09:02:54.049Z,27.31
2019-04-22T09:03:52.440Z,27.48
2019-04-22T09:04:48.031Z,24.90
2019-04-22T09:06:10.992Z,26.92
2019-04-22T09:07:07.661Z,27.00
2019-04-22T09:07:52.078Z,25.77
2019-04-22T09:08:55.587Z,26.54
2019-04-22T09:09:54.067Z,25.52
2019-04-22T09:10:51.795Z,25.71
2019-04-22T09:11:54.829Z,25.42
2019-04-22T09:15:08.125Z,26.67
2019-04-22T09:15:48.802Z,25.67
2019-04-22T09:16:48.204Z,26.77
2019-04-22T09:17:55.888Z,27.06
2019-04-22T09:18:56.115Z,27.48
2019-04-22T09:19:56.022Z,27.20
2019-04-22T09:21:04.753Z,27.20
2019-04-22T09:21:54.357Z,28.82
2019-04-22T09:22:53.950Z,27.12
2019-04-22T09:24:54.720Z,28.30
2019-04-22T09:25:48.547Z,28.36
2019-04-22T09:27:51.149Z,25.73
2019-04-22T09:29:56.416Z,26.81
2019-04-22T09:30:58.583Z,25.56
2019-04-22T09:31:53.342Z,28.17
2019-04-22T09:32:54.468Z,27.70
2019-04-22T09:33:50.394Z,29.11
2019-04-22T09:34:51.334Z,28.17
2019-04-22T09:36:07.797Z,27.97
2019-04-22T09:37:04.718Z,27.85
2019-04-22T09:37:58.826Z,27.42
2019-04-22T09:38:50.667Z,28.11
2019-04-22T09:40:14.062Z,26.42
2019-04-22T09:40:55.318Z,27.64
2019-04-22T09:41:55.684Z,29.05
2019-04-22T09:42:50.585Z,27.03
2019-04-22T09:43:53.608Z,26.81
2019-04-22T09:45:05.787Z,26.50
2019-04-22T09:46:51.975Z,28.01
2019-04-22T09:47:55.558Z,26.83
2019-04-22T09:49:54.879Z,28.51
2019-04-22T09:50:55.675Z,25.51
2019-04-22T09:51:52.088Z,26.51
2019-04-22T09:52:54.746Z,26.70
2019-04-22T09:55:55.115Z,28.33
2019-04-22T09:56:49.463Z,26.81
2019-04-22T09:57:50.972Z,28.08
2019-04-22T09:58:55.606Z,25.78
2019-04-22T09:59:57.991Z,26.48
2019-04-22T10:00:52.833Z,26.52
2019-04-22T10:02:08.448Z,28.31
2019-04-22T10:02:55.435Z,26.29
2019-04-22T10:03:56.242Z,26.71
2019-04-22T10:04:57.245Z,28.30
2019-04-22T10:05:58.223Z,27.20
2019-04-22T10:06:44.342Z,29.80
2019-04-22T10:07:52.817Z,29.71
2019-04-22T10:09:59.672Z,27.11
2019-04-22T10:09:59.798Z,27.72
2019-04-22T10:10:56.566Z,27.78
2019-04-22T10:11:51.037Z,28.39
2019-04-22T10:12:46.618Z,27.36
2019-04-22T10:13:54.170Z,26.68
2019-04-22T10:14:49.649Z,27.88
2019-04-22T10:15:59.949Z,27.97
2019-04-22T10:16:51.853Z,26.57
2019-04-22T10:17:52.317Z,26.51
2019-04-22T10:18:52.977Z,27.55
2019-04-22T10:19:53.327Z,28.75
2019-04-22T10:20:54.261Z,30.47
2019-04-22T10:22:04.544Z,28.02
2019-04-22T10:22:54.756Z,28.01
2019-04-22T10:23:55.085Z,27.52
2019-04-22T10:24:53.652Z,27.11
2019-04-22T10:25:52.553Z,27.89
2019-04-22T10:26:55.325Z,27.87
2019-04-22T10:27:55.490Z,27.21
2019-04-22T10:28:59.488Z,27.98
2019-04-22T10:29:53.724Z,27.97
2019-04-22T10:31:49.406Z,26.08
2019-04-22T10:32:47.568Z,27.38
2019-04-22T10:34:34.681Z,28.04
2019-04-22T10:35:28.375Z,26.86
2019-04-22T10:36:25.597Z,27.17
2019-04-22T10:37:25.656Z,27.38
2019-04-22T10:38:26.293Z,27.91
2019-04-22T10:39:37.883Z,28.33
2019-04-22T10:40:25.821Z,28.32
2019-04-22T10:41:24.669Z,28.00
2019-04-22T10:42:25.064Z,27.67
2019-04-22T10:43:25.328Z,28.03
2019-04-22T10:44:24.639Z,28.30
2019-04-22T10:45:25.976Z,26.81
2019-04-22T10:46:26.273Z,26.33
2019-04-22T10:47:25.764Z,26.65
2019-04-22T10:48:26.108Z,26.77
2019-04-22T10:49:24.630Z,27.98
2019-04-22T10:50:24.707Z,28.19
2019-04-22T10:51:24.577Z,28.21
2019-04-22T10:52:25.643Z,28.12
2019-04-22T10:53:25.736Z,29.41
2019-04-22T10:54:25.342Z,28.48
2019-04-22T10:55:25.422Z,29.47
2019-04-22T10:56:25.306Z,27.75
2019-04-22T10:57:25.611Z,27.94
2019-04-22T10:58:24.827Z,27.98
2019-04-22T10:59:24.762Z,29.15
2019-04-22T11:00:24.486Z,28.17
2019-04-22T11:01:25.628Z,29.57
2019-04-22T11:02:25.646Z,27.77
2019-04-22T11:03:24.690Z,27.64
2019-04-22T11:04:25.863Z,30.34
2019-04-22T11:05:24.437Z,32.01
2019-04-22T11:06:25.366Z,29.78
2019-04-22T11:07:30.844Z,29.21
2019-04-22T11:08:37.847Z,28.01
2019-04-22T11:09:26.731Z,27.97
2019-04-22T11:10:41.310Z,28.16
2019-04-22T11:11:35.821Z,28.27
2019-04-22T11:12:28.859Z,28.41
2019-04-22T11:13:26.124Z,29.14
2019-04-22T11:14:24.351Z,29.71
2019-04-22T11:15:24.512Z,27.98
2019-04-22T11:16:25.672Z,28.07
2019-04-22T11:17:25.945Z,29.65
2019-04-22T11:18:25.360Z,27.57
2019-04-22T11:19:25.559Z,30.16
2019-04-22T11:20:24.295Z,29.04
2019-04-22T11:21:25.395Z,28.24
2019-04-22T11:22:28.517Z,28.94
2019-04-22T11:23:26.905Z,27.97
2019-04-22T11:24:24.274Z,29.05
2019-04-22T11:25:25.514Z,28.84
2019-04-22T11:26:24.235Z,27.94
2019-04-22T11:27:25.335Z,29.44
2019-04-22T11:28:25.525Z,31.32
2019-04-22T11:29:25.574Z,28.53
2019-04-22T11:30:27.622Z,29.81
2019-04-22T11:31:24.240Z,27.62
2019-04-22T11:32:24.418Z,29.31
2019-04-22T11:33:24.666Z,28.80
2019-04-22T11:34:24.909Z,27.95
2019-04-22T11:35:24.149Z,28.07
2019-04-22T11:36:26.936Z,29.58
2019-04-22T11:37:24.902Z,30.60
2019-04-22T11:38:24.686Z,29.84
2019-04-22T11:39:24.108Z,30.52
2019-04-22T11:40:32.050Z,30.22
2019-04-22T11:41:25.517Z,30.11
2019-04-22T11:42:24.084Z,29.48
2019-04-22T11:43:24.252Z,31.40
2019-04-22T11:44:25.395Z,32.06
2019-04-22T11:45:24.051Z,30.57
2019-04-22T11:46:25.277Z,30.18
2019-04-22T11:47:25.447Z,30.81
2019-04-22T11:48:24.024Z,30.52
2019-04-22T11:49:24.012Z,30.73
2019-04-22T11:50:24.256Z,30.52
2019-04-22T11:51:24.373Z,31.35
2019-04-22T11:52:24.679Z,30.55
2019-04-22T11:53:24.860Z,31.65
2019-04-22T11:54:25.081Z,30.65
2019-04-22T11:55:24.572Z,34.64
2019-04-22T11:56:25.156Z,30.81
2019-04-22T11:57:25.226Z,30.29
2019-04-22T11:58:24.651Z,30.84
2019-04-22T11:59:24.903Z,31.52
2019-04-22T12:00:25.021Z,31.41
2019-04-22T12:01:24.651Z,30.12
2019-04-22T12:02:25.304Z,31.04
2019-04-22T12:03:25.361Z,32.74
2019-04-22T12:04:23.864Z,31.99
2019-04-22T12:05:23.852Z,30.04
2019-04-22T12:06:24.080Z,29.81
2019-04-22T12:07:23.834Z,28.71
2019-04-22T12:08:25.100Z,28.84
2019-04-22T12:09:23.896Z,29.19
2019-04-22T12:10:33.007Z,29.67
2019-04-22T12:11:26.145Z,28.18
2019-04-22T12:12:23.783Z,29.36
2019-04-22T12:13:24.182Z,29.43
2019-04-22T12:14:24.029Z,30.52
2019-04-22T12:15:24.656Z,31.71
2019-04-22T12:16:23.742Z,29.30
2019-04-22T12:17:24.259Z,29.18
2019-04-22T12:18:24.949Z,28.91
2019-04-22T12:19:25.050Z,30.60
2019-04-22T12:20:25.388Z,30.40
2019-04-22T12:21:23.692Z,31.32
2019-04-22T12:22:25.113Z,30.41
2019-04-22T12:23:25.070Z,30.73
2019-04-22T12:24:25.089Z,31.54
2019-04-22T12:25:34.823Z,31.14
2019-04-22T12:26:25.488Z,31.34
2019-04-22T12:27:24.803Z,31.62
2019-04-22T12:28:23.621Z,32.11
2019-04-22T12:29:24.770Z,31.52
2019-04-22T12:30:23.738Z,30.34
2019-04-22T12:31:23.873Z,31.35
2019-04-22T12:32:23.578Z,32.24
2019-04-22T12:33:23.638Z,30.43
2019-04-22T12:34:23.814Z,29.38
2019-04-22T12:35:24.323Z,29.61
2019-04-22T12:36:24.524Z,32.73
2019-04-22T12:37:31.568Z,31.20
2019-04-22T12:38:24.518Z,29.88
2019-04-22T12:39:23.511Z,30.36
2019-04-22T12:40:33.808Z,29.55
2019-04-22T12:41:25.845Z,29.94
2019-04-22T12:42:23.664Z,28.94
2019-04-22T12:43:25.703Z,28.53
2019-04-22T12:44:24.451Z,30.36
2019-04-22T12:45:24.594Z,30.85
2019-04-22T12:46:24.053Z,30.65
2019-04-22T12:47:24.348Z,31.45
2019-04-22T12:48:23.417Z,30.99
2019-04-22T12:49:23.404Z,32.31
2019-04-22T12:50:28.330Z,32.01
2019-04-22T12:51:24.998Z,32.34
2019-04-22T12:52:32.363Z,32.44
2019-04-22T12:53:27.664Z,35.14
2019-04-22T12:54:24.614Z,32.31
2019-04-22T12:55:23.801Z,31.49
2019-04-22T12:56:23.847Z,32.09
2019-04-22T12:57:24.765Z,31.40
2019-04-22T12:58:23.563Z,31.61
2019-04-22T12:59:23.730Z,31.62
2019-04-22T13:00:24.559Z,32.01
2019-04-22T13:01:24.509Z,31.54
2019-04-22T13:02:23.281Z,31.74
2019-04-22T13:03:24.527Z,32.04
2019-04-22T13:04:25.137Z,31.44
2019-04-22T13:05:23.242Z,32.03
2019-04-22T13:06:23.648Z,31.71
2019-04-22T13:07:24.108Z,30.11
2019-04-22T13:08:23.566Z,31.23
2019-04-22T13:09:23.279Z,30.22
2019-04-22T13:10:24.152Z,31.74
2019-04-22T13:11:29.959Z,30.76
2019-04-22T13:12:24.836Z,30.35
2019-04-22T13:13:23.150Z,30.04
2019-04-22T13:14:23.308Z,31.23
2019-04-22T13:15:23.865Z,30.73
2019-04-22T13:16:23.119Z,31.23
2019-04-22T13:17:23.209Z,30.73
2019-04-22T13:18:31.678Z,30.31
2019-04-22T13:19:26.455Z,30.12
2019-04-22T13:20:24.307Z,30.51
2019-04-22T13:21:24.338Z,29.80
2019-04-22T13:22:23.203Z,29.60
2019-04-22T13:23:23.047Z,30.28
2019-04-22T13:24:23.777Z,29.51
2019-04-22T13:25:26.089Z,30.21
2019-04-22T13:26:23.236Z,31.31
2019-04-22T13:27:23.004Z,30.19
2019-04-22T13:28:23.151Z,33.00
2019-04-22T13:29:23.308Z,32.46
2019-04-22T13:30:22.999Z,30.19
2019-04-22T13:31:24.434Z,30.71
2019-04-22T13:32:22.952Z,31.14
2019-04-22T13:33:23.252Z,32.67
2019-04-22T13:34:31.476Z,32.29
2019-04-22T13:35:24.645Z,33.40
2019-04-22T13:36:24.489Z,35.28
2019-04-22T13:37:23.272Z,32.47
2019-04-22T13:38:22.889Z,31.85
2019-04-22T13:39:22.942Z,32.15
2019-04-22T13:40:23.366Z,31.26
2019-04-22T13:41:31.718Z,31.46
2019-04-22T13:42:25.340Z,31.94
2019-04-22T13:43:22.921Z,32.04
2019-04-22T13:44:23.093Z,32.12
2019-04-22T13:45:22.815Z,31.73
2019-04-22T13:46:24.004Z,31.32
2019-04-22T13:47:41.503Z,30.73
2019-04-22T13:48:38.719Z,30.95
2019-04-22T13:49:59.287Z,32.26
2019-04-22T13:51:52.203Z,32.57
2019-04-22T13:52:53.475Z,33.67
2019-04-22T13:54:13.704Z,32.17
2019-04-22T13:55:54.735Z,33.16
2019-04-22T13:56:43.163Z,32.47
2019-04-22T13:57:41.354Z,33.17
2019-04-22T13:58:35.574Z,31.57
2019-04-22T13:59:32.276Z,33.29
2019-04-22T14:00:24.909Z,32.39
2019-04-22T14:01:22.902Z,32.37
2019-04-22T14:02:22.637Z,31.99
2019-04-22T14:03:22.622Z,33.09
2019-04-22T14:04:22.746Z,32.90
2019-04-22T14:05:22.603Z,32.21
2019-04-22T14:06:22.741Z,32.53
2019-04-22T14:07:23.147Z,33.22
2019-04-22T14:08:23.053Z,32.70
2019-04-22T14:09:24.307Z,32.29
2019-04-22T14:10:22.867Z,31.99
2019-04-22T14:11:32.349Z,32.89
2019-04-22T14:12:24.639Z,31.88
2019-04-22T14:13:23.762Z,32.57
2019-04-22T14:14:23.903Z,33.91
2019-04-22T14:15:22.494Z,32.42
2019-04-22T14:16:22.908Z,32.92
2019-04-22T14:17:22.997Z,32.52